createdAt,value
2022-08-22T00:00:22.575Z,17.70
2022-08-22T00:02:52.977Z,20.30
2022-08-22T00:06:07.919Z,17.60
2022-08-22T00:08:47.338Z,17.60
2022-08-22T00:11:17.806Z,17.60
2022-08-22T00:14:07.933Z,17.50
2022-08-22T00:16:46.533Z,17.50
2022-08-22T00:19:17.751Z,17.50
2022-08-22T00:22:05.351Z,17.50
2022-08-22T00:24:52.738Z,17.50
2022-08-22T00:27:23.547Z,17.40
2022-08-22T00:29:57.236Z,17.40
2022-08-22T00:32:29.991Z,17.30
2022-08-22T00:35:29.937Z,17.30
2022-08-22T00:38:02.819Z,17.30
2022-08-22T00:40:34.372Z,17.20
2022-08-22T00:43:26.398Z,17.30
2022-08-22T00:46:18.562Z,17.30
2022-08-22T00:49:21.191Z,17.30
2022-08-22T00:52:11.130Z,17.30
2022-08-22T00:54:47.416Z,17.30
2022-08-22T00:57:27.566Z,17.20
2022-08-22T01:00:00.971Z,17.20
2022-08-22T01:03:15.130Z,17.20
2022-08-22T01:05:51.435Z,17.20
2022-08-22T01:08:33.844Z,17.20
2022-08-22T01:11:04.292Z,17.20
2022-08-22T01:13:50.208Z,17.20
2022-08-22T01:16:36.044Z,17.20
2022-08-22T01:19:29.163Z,17.10
2022-08-22T01:22:30.210Z,17.10
2022-08-22T01:25:25.866Z,17.00
2022-08-22T01:28:15.989Z,17.00
2022-08-22T01:31:02.384Z,17.00
2022-08-22T01:33:48.490Z,17.00
2022-08-22T01:36:30.601Z,17.10
2022-08-22T01:39:21.082Z,17.00
2022-08-22T01:42:10.908Z,17.10
2022-08-22T01:44:47.047Z,17.00
2022-08-22T01:47:22.911Z,17.00
2022-08-22T01:50:02.684Z,17.00
2022-08-22T01:52:50.140Z,16.90
2022-08-22T01:56:02.208Z,16.90
2022-08-22T01:58:33.677Z,16.80
2022-08-22T02:01:23.860Z,16.80
2022-08-22T02:03:51.365Z,16.80
2022-08-22T02:06:48.178Z,16.70
2022-08-22T02:09:34.502Z,16.70
2022-08-22T02:12:22.278Z,16.70
2022-08-22T02:15:21.488Z,16.60
2022-08-22T02:18:01.287Z,16.70
2022-08-22T02:20:52.883Z,16.80
2022-08-22T02:23:56.055Z,16.80
2022-08-22T02:26:47.016Z,16.80
2022-08-22T02:29:18.920Z,16.70
2022-08-22T02:31:55.321Z,16.70
2022-08-22T02:34:46.933Z,16.60
2022-08-22T02:37:23.878Z,16.60
2022-08-22T02:40:00.896Z,16.60
2022-08-22T02:42:42.243Z,16.60
2022-08-22T02:45:27.020Z,16.60
2022-08-22T02:47:57.271Z,16.60
2022-08-22T02:50:59.076Z,16.60
2022-08-22T02:53:55.096Z,16.60
2022-08-22T02:56:35.898Z,16.60
2022-08-22T02:59:57.307Z,16.60
2022-08-22T03:02:56.895Z,16.60
2022-08-22T03:05:40.803Z,16.50
2022-08-22T03:08:17.370Z,16.50
2022-08-22T03:11:10.698Z,16.50
2022-08-22T03:13:59.012Z,16.50
2022-08-22T03:16:47.672Z,16.50
2022-08-22T03:19:31.893Z,16.40
2022-08-22T03:22:13.556Z,16.40
2022-08-22T03:25:00.004Z,16.40
2022-08-22T03:27:50.141Z,16.30
2022-08-22T03:30:20.043Z,16.20
2022-08-22T03:32:59.098Z,16.20
2022-08-22T03:35:32.374Z,16.20
2022-08-22T03:38:14.789Z,16.20
2022-08-22T03:41:24.144Z,16.20
2022-08-22T03:44:03.707Z,16.10
2022-08-22T03:46:49.850Z,16.10
2022-08-22T03:49:35.803Z,16.10
2022-08-22T03:52:27.450Z,16.00
2022-08-22T03:55:05.898Z,16.00
2022-08-22T03:57:45.354Z,16.00
2022-08-22T04:00:18.681Z,16.00
2022-08-22T04:02:52.128Z,15.90
2022-08-22T04:05:34.507Z,15.90
2022-08-22T04:08:04.739Z,15.90
2022-08-22T04:10:57.070Z,15.90
2022-08-22T04:13:33.595Z,15.90
2022-08-22T04:16:07.791Z,15.90
2022-08-22T04:19:04.190Z,15.80
2022-08-22T04:22:16.212Z,15.80
2022-08-22T04:25:08.420Z,15.80
2022-08-22T04:28:02.018Z,15.80
2022-08-22T04:30:53.961Z,15.80
2022-08-22T04:33:33.747Z,15.90
2022-08-22T04:36:13.664Z,15.80
2022-08-22T04:38:44.748Z,15.80
2022-08-22T04:41:13.434Z,15.80
2022-08-22T04:43:53.951Z,15.80
2022-08-22T04:46:39.427Z,15.80
2022-08-22T04:49:17.047Z,15.80
2022-08-22T04:51:48.116Z,15.80
2022-08-22T04:54:23.682Z,15.80
2022-08-22T04:57:19.466Z,15.80
2022-08-22T04:59:46.932Z,15.90
2022-08-22T05:02:21.515Z,15.90
2022-08-22T05:04:52.061Z,15.90
2022-08-22T05:07:35.854Z,16.00
2022-08-22T05:10:12.743Z,16.00
2022-08-22T05:12:41.301Z,16.00
2022-08-22T05:15:15.987Z,16.10
2022-08-22T05:17:51.724Z,16.10
2022-08-22T05:20:22.812Z,16.10
2022-08-22T05:22:52.898Z,16.20
2022-08-22T05:25:22.583Z,16.20
2022-08-22T05:27:56.339Z,16.20
2022-08-22T05:30:25.661Z,16.30
2022-08-22T05:33:16.346Z,16.30
2022-08-22T05:35:57.706Z,16.40
2022-08-22T05:38:34.760Z,16.40
2022-08-22T05:41:08.778Z,16.40
2022-08-22T05:43:43.618Z,16.50
2022-08-22T05:46:44.018Z,16.50
2022-08-22T05:49:26.296Z,16.60
2022-08-22T05:52:09.359Z,16.60
2022-08-22T05:54:43.835Z,16.60
2022-08-22T05:57:21.511Z,16.70
2022-08-22T05:59:48.746Z,16.70
2022-08-22T06:02:22.048Z,16.80
2022-08-22T06:04:51.247Z,16.90
2022-08-22T06:07:41.577Z,16.90
2022-08-22T06:10:22.442Z,17.00
2022-08-22T06:13:13.837Z,17.00
2022-08-22T06:16:25.210Z,17.10
2022-08-22T06:18:52.671Z,17.10
2022-08-22T06:21:39.339Z,17.20
2022-08-22T06:24:08.692Z,17.20
2022-08-22T06:26:38.719Z,17.30
2022-08-22T06:29:07.202Z,17.40
2022-08-22T06:31:37.523Z,17.40
2022-08-22T06:34:25.208Z,17.50
2022-08-22T06:36:52.543Z,17.60
2022-08-22T06:39:34.052Z,17.70
2022-08-22T06:42:04.762Z,17.80
2022-08-22T06:44:35.427Z,17.90
2022-08-22T06:47:05.669Z,18.00
2022-08-22T06:49:33.221Z,18.10
2022-08-22T06:52:04.336Z,18.10
2022-08-22T06:54:34.552Z,18.20
2022-08-22T06:57:02.059Z,18.30
2022-08-22T06:59:30.178Z,18.40
2022-08-22T07:02:18.850Z,18.50
2022-08-22T07:04:50.624Z,18.60
2022-08-22T07:07:18.917Z,18.70
2022-08-22T07:09:50.460Z,18.80
2022-08-22T07:12:19.543Z,18.90
2022-08-22T07:14:51.199Z,18.90
2022-08-22T07:17:29.844Z,19.00
2022-08-22T07:20:23.978Z,19.10
2022-08-22T07:22:59.793Z,19.20
2022-08-22T07:25:27.263Z,19.40
2022-08-22T07:28:07.512Z,19.50
2022-08-22T07:30:55.858Z,19.50
2022-08-22T07:33:46.481Z,19.60
2022-08-22T07:36:31.444Z,19.70
2022-08-22T07:39:24.351Z,19.80
2022-08-22T07:42:19.233Z,19.90
2022-08-22T07:44:53.081Z,20.00
2022-08-22T07:47:26.544Z,20.00
2022-08-22T07:50:03.769Z,20.10
2022-08-22T07:52:38.365Z,20.20
2022-08-22T07:55:23.142Z,20.30
2022-08-22T07:57:54.739Z,20.40
2022-08-22T08:00:22.453Z,20.40
2022-08-22T08:02:52.250Z,20.50
2022-08-22T08:05:21.519Z,20.60
2022-08-22T08:07:48.878Z,20.60
2022-08-22T08:10:19.360Z,20.60
2022-08-22T08:12:57.959Z,20.70
2022-08-22T08:15:30.115Z,20.80
2022-08-22T08:18:05.283Z,20.80
2022-08-22T08:20:34.448Z,20.80
2022-08-22T08:23:01.838Z,20.90
2022-08-22T08:25:30.476Z,21.00
2022-08-22T08:28:16.589Z,21.00
2022-08-22T08:30:59.489Z,21.00
2022-08-22T08:33:28.222Z,21.10
2022-08-22T08:36:11.249Z,21.20
2022-08-22T08:38:47.017Z,21.20
2022-08-22T08:41:32.920Z,21.30
2022-08-22T08:44:03.261Z,21.40
2022-08-22T08:46:42.542Z,21.40
2022-08-22T08:49:33.642Z,21.40
2022-08-22T08:52:19.910Z,21.50
2022-08-22T08:55:00.272Z,21.50
2022-08-22T08:57:32.148Z,21.50
2022-08-22T09:00:11.025Z,21.60
2022-08-22T09:02:47.742Z,21.60
2022-08-22T09:05:38.928Z,21.80
2022-08-22T09:08:15.065Z,21.80
2022-08-22T09:11:25.251Z,21.80
2022-08-22T09:14:12.431Z,21.90
2022-08-22T09:16:58.504Z,21.90
2022-08-22T09:19:40.811Z,22.00
2022-08-22T09:22:17.622Z,22.00
2022-08-22T09:25:06.008Z,22.00
2022-08-22T09:27:52.392Z,22.00
2022-08-22T09:30:28.530Z,22.10
2022-08-22T09:33:01.054Z,22.20
2022-08-22T09:35:47.389Z,22.30
2022-08-22T09:38:58.734Z,22.40
2022-08-22T09:41:51.646Z,22.60
2022-08-22T09:44:31.444Z,22.50
2022-08-22T09:47:17.794Z,22.50
2022-08-22T09:50:08.511Z,22.50
2022-08-22T09:53:01.830Z,22.50
2022-08-22T09:55:52.055Z,22.60
2022-08-22T09:58:57.789Z,22.60
2022-08-22T10:01:40.295Z,22.60
2022-08-22T10:04:38.874Z,22.70
2022-08-22T10:07:21.778Z,22.70
2022-08-22T10:10:01.406Z,22.90
2022-08-22T10:12:36.518Z,23.00
2022-08-22T10:15:27.168Z,23.00
2022-08-22T10:18:10.457Z,23.00
2022-08-22T10:21:00.483Z,23.10
2022-08-22T10:23:33.947Z,23.20
2022-08-22T10:26:08.256Z,23.30
2022-08-22T10:28:55.281Z,23.30
2022-08-22T10:31:41.164Z,23.40
2022-08-22T10:34:29.013Z,23.30
2022-08-22T10:37:25.337Z,23.30
2022-08-22T10:39:58.740Z,23.30
2022-08-22T10:42:28.265Z,23.40
2022-08-22T10:45:03.121Z,23.60
2022-08-22T10:47:39.956Z,23.70
2022-08-22T10:50:12.301Z,23.80
2022-08-22T10:53:16.249Z,23.90
2022-08-22T10:55:43.602Z,23.80
2022-08-22T10:58:34.508Z,23.80
2022-08-22T11:01:37.213Z,23.80
2022-08-22T11:04:05.486Z,23.70
2022-08-22T11:06:44.798Z,23.60
2022-08-22T11:09:37.738Z,23.60
2022-08-22T11:12:13.215Z,23.70
2022-08-22T11:14:55.028Z,23.80
2022-08-22T11:17:59.475Z,23.90
2022-08-22T11:20:55.175Z,23.90
2022-08-22T11:23:37.620Z,24.00
2022-08-22T11:26:14.447Z,24.00
2022-08-22T11:29:12.316Z,24.00
2022-08-22T11:31:54.287Z,24.10
2022-08-22T11:34:45.892Z,24.10
2022-08-22T11:37:17.555Z,24.20
2022-08-22T11:39:57.955Z,24.30
2022-08-22T11:42:32.127Z,24.30
2022-08-22T11:45:00.437Z,24.50
2022-08-22T11:47:32.564Z,24.60
2022-08-22T11:50:16.439Z,24.70
2022-08-22T11:53:04.618Z,24.70
2022-08-22T11:56:01.002Z,24.60
2022-08-22T11:58:49.951Z,24.60
2022-08-22T12:01:18.752Z,24.50
2022-08-22T12:03:47.105Z,24.40
2022-08-22T12:06:32.288Z,24.40
2022-08-22T12:09:20.673Z,24.40
2022-08-22T12:12:15.155Z,24.40
2022-08-22T12:14:56.206Z,24.50
2022-08-22T12:17:50.823Z,24.50
2022-08-22T12:20:45.593Z,24.50
2022-08-22T12:23:48.574Z,24.40
2022-08-22T12:26:22.083Z,24.40
2022-08-22T12:29:03.564Z,24.30
2022-08-22T12:31:37.657Z,24.30
2022-08-22T12:34:24.259Z,24.30
2022-08-22T12:37:19.166Z,24.30
2022-08-22T12:40:08.950Z,24.30
2022-08-22T12:42:55.431Z,24.20
2022-08-22T12:45:42.434Z,24.10
2022-08-22T12:48:40.216Z,24.00
2022-08-22T12:51:29.388Z,24.10
2022-08-22T12:54:18.079Z,24.20
2022-08-22T12:57:32.436Z,24.30
2022-08-22T13:00:16.719Z,24.30
2022-08-22T13:02:54.061Z,24.50
2022-08-22T13:05:23.830Z,24.40
2022-08-22T13:08:05.499Z,24.40
2022-08-22T13:10:45.175Z,24.30
2022-08-22T13:13:37.224Z,24.30
2022-08-22T13:16:11.732Z,24.40
2022-08-22T13:19:07.579Z,24.30
2022-08-22T13:21:50.719Z,24.40
2022-08-22T13:24:38.691Z,24.40
2022-08-22T13:27:10.987Z,24.30
2022-08-22T13:29:59.944Z,24.40
2022-08-22T13:32:45.955Z,24.30
2022-08-22T13:35:38.343Z,24.30
2022-08-22T13:38:13.202Z,24.40
2022-08-22T13:40:44.727Z,24.40
2022-08-22T13:43:17.961Z,24.40
2022-08-22T13:45:56.761Z,24.30
2022-08-22T13:48:28.604Z,24.30
2022-08-22T13:50:58.830Z,24.30
2022-08-22T13:53:49.390Z,24.30
2022-08-22T13:56:28.715Z,24.30
2022-08-22T13:58:58.751Z,24.30
2022-08-22T14:01:47.329Z,24.30
2022-08-22T14:04:35.904Z,24.30
2022-08-22T14:07:04.520Z,24.30
2022-08-22T14:09:54.495Z,24.50
2022-08-22T14:12:33.504Z,24.50
2022-08-22T14:15:23.436Z,24.50
2022-08-22T14:17:52.308Z,24.40
2022-08-22T14:20:32.449Z,24.30
2022-08-22T14:23:11.558Z,24.30
2022-08-22T14:25:40.060Z,24.30
2022-08-22T14:28:20.274Z,24.30
2022-08-22T14:31:00.726Z,24.30
2022-08-22T14:33:39.843Z,24.30
2022-08-22T14:36:14.346Z,24.30
2022-08-22T14:38:51.731Z,24.40
2022-08-22T14:41:56.983Z,24.40
2022-08-22T14:44:50.254Z,24.40
2022-08-22T14:47:55.644Z,24.40
2022-08-22T14:50:40.398Z,24.40
2022-08-22T14:53:19.870Z,24.50
2022-08-22T14:56:10.965Z,24.50
2022-08-22T14:58:50.395Z,24.40
2022-08-22T15:01:23.698Z,24.40
2022-08-22T15:04:06.348Z,24.50
2022-08-22T15:07:06.247Z,24.50
2022-08-22T15:09:43.505Z,24.50
2022-08-22T15:12:30.729Z,24.50
2022-08-22T15:15:03.810Z,24.40
2022-08-22T15:17:45.619Z,24.30
2022-08-22T15:20:36.592Z,24.30
2022-08-22T15:23:20.880Z,24.30
2022-08-22T15:26:04.924Z,24.30
2022-08-22T15:28:52.670Z,24.30
2022-08-22T15:31:20.821Z,24.40
2022-08-22T15:33:48.320Z,24.40
2022-08-22T15:36:25.714Z,24.30
2022-08-22T15:38:55.326Z,24.20
2022-08-22T15:41:22.910Z,24.10
2022-08-22T15:44:00.636Z,24.10
2022-08-22T15:46:39.430Z,24.10
2022-08-22T15:49:48.072Z,24.10
2022-08-22T15:52:24.465Z,24.00
2022-08-22T15:54:57.039Z,23.90
2022-08-22T15:57:34.937Z,23.80
2022-08-22T16:00:12.101Z,23.60
2022-08-22T16:03:14.262Z,23.50
2022-08-22T16:05:43.230Z,23.50
2022-08-22T16:08:14.512Z,23.40
2022-08-22T16:11:03.104Z,23.30
2022-08-22T16:13:30.470Z,23.20
2022-08-22T16:16:03.920Z,23.20
2022-08-22T16:18:34.342Z,23.30
2022-08-22T16:21:04.951Z,23.30
2022-08-22T16:23:53.910Z,23.30
2022-08-22T16:26:27.523Z,23.30
2022-08-22T16:29:06.814Z,23.30
2022-08-22T16:31:42.985Z,23.20
2022-08-22T16:34:16.557Z,23.20
2022-08-22T16:37:11.458Z,23.20
2022-08-22T16:39:57.333Z,23.10
2022-08-22T16:42:24.771Z,23.00
2022-08-22T16:45:05.443Z,22.90
2022-08-22T16:47:33.265Z,22.90
2022-08-22T16:50:23.964Z,22.80
2022-08-22T16:53:04.949Z,22.70
2022-08-22T16:55:35.771Z,22.60
2022-08-22T16:58:12.026Z,22.60
2022-08-22T17:01:16.994Z,22.50
2022-08-22T17:04:14.015Z,22.40
2022-08-22T17:06:44.219Z,22.40
2022-08-22T17:09:41.876Z,22.30
2022-08-22T17:12:33.955Z,22.30
2022-08-22T17:15:07.271Z,22.20
2022-08-22T17:18:10.802Z,22.10
2022-08-22T17:20:47.390Z,22.10
2022-08-22T17:23:34.767Z,22.00
2022-08-22T17:26:14.835Z,22.00
2022-08-22T17:29:04.532Z,21.90
2022-08-22T17:31:55.814Z,21.80
2022-08-22T17:34:59.646Z,21.80
2022-08-22T17:37:36.254Z,21.80
2022-08-22T17:40:47.265Z,21.70
2022-08-22T17:43:23.544Z,21.60
2022-08-22T17:46:02.816Z,21.60
2022-08-22T17:49:09.387Z,21.50
2022-08-22T17:51:47.648Z,21.50
2022-08-22T17:54:14.988Z,21.50
2022-08-22T17:57:06.018Z,21.40
2022-08-22T17:59:39.663Z,21.40
2022-08-22T18:02:23.351Z,21.30
2022-08-22T18:05:19.551Z,21.30
2022-08-22T18:08:02.056Z,21.20
2022-08-22T18:10:50.237Z,21.20
2022-08-22T18:13:28.686Z,21.10
2022-08-22T18:16:01.710Z,21.00
2022-08-22T18:18:33.794Z,21.00
2022-08-22T18:21:02.891Z,21.00
2022-08-22T18:23:39.317Z,20.90
2022-08-22T18:26:24.343Z,20.90
2022-08-22T18:29:10.581Z,20.80
2022-08-22T18:31:45.743Z,20.70
2022-08-22T18:34:21.627Z,20.70
2022-08-22T18:36:55.283Z,20.60
2022-08-22T18:39:42.642Z,20.60
2022-08-22T18:42:18.425Z,20.50
2022-08-22T18:44:45.772Z,20.50
2022-08-22T18:47:19.566Z,20.40
2022-08-22T18:49:48.486Z,20.40
2022-08-22T18:52:19.065Z,20.30
2022-08-22T18:55:23.329Z,20.30
2022-08-22T18:58:12.674Z,20.20
2022-08-22T19:01:31.193Z,20.20
2022-08-22T19:04:33.022Z,20.10
2022-08-22T19:07:13.546Z,20.00
2022-08-22T19:09:53.315Z,20.00
2022-08-22T19:12:51.332Z,19.90
2022-08-22T19:15:31.448Z,19.90
2022-08-22T19:18:08.625Z,19.80
2022-08-22T19:20:56.298Z,19.80
2022-08-22T19:23:32.766Z,19.80
2022-08-22T19:26:29.676Z,19.70
2022-08-22T19:29:07.698Z,19.70
2022-08-22T19:31:41.203Z,19.70
2022-08-22T19:34:29.553Z,19.60
2022-08-22T19:37:30.729Z,19.70
2022-08-22T19:40:01.269Z,19.60
2022-08-22T19:42:34.219Z,19.60
2022-08-22T19:45:17.656Z,19.60
2022-08-22T19:47:53.913Z,19.50
2022-08-22T19:50:21.331Z,19.50
2022-08-22T19:53:10.202Z,19.50
2022-08-22T19:55:37.512Z,19.40
2022-08-22T19:58:33.066Z,19.40
2022-08-22T20:01:25.627Z,19.40
2022-08-22T20:04:03.740Z,19.30
2022-08-22T20:06:43.907Z,19.40
2022-08-22T20:09:35.861Z,19.40
2022-08-22T20:12:24.953Z,19.40
2022-08-22T20:14:52.275Z,19.30
2022-08-22T20:17:25.779Z,19.30
2022-08-22T20:20:19.702Z,19.20
2022-08-22T20:23:14.121Z,19.10
2022-08-22T20:25:44.156Z,19.10
2022-08-22T20:28:48.823Z,19.00
2022-08-22T20:31:24.749Z,18.90
2022-08-22T20:33:55.707Z,18.80
2022-08-22T20:36:28.325Z,18.70
2022-08-22T20:39:24.625Z,18.70
2022-08-22T20:41:56.236Z,18.70
2022-08-22T20:44:29.498Z,18.60
2022-08-22T20:47:11.156Z,18.60
2022-08-22T20:49:49.159Z,18.50
2022-08-22T20:52:36.327Z,18.50
2022-08-22T20:55:08.290Z,18.50
2022-08-22T20:57:36.313Z,18.50
2022-08-22T21:00:11.440Z,18.50
2022-08-22T21:02:48.040Z,18.50
2022-08-22T21:05:17.339Z,18.40
2022-08-22T21:07:46.284Z,18.40
2022-08-22T21:10:44.112Z,18.40
2022-08-22T21:13:26.588Z,18.30
2022-08-22T21:15:59.202Z,18.30
2022-08-22T21:18:39.535Z,18.30
2022-08-22T21:21:29.400Z,18.30
2022-08-22T21:24:01.843Z,18.30
2022-08-22T21:26:36.575Z,18.20
2022-08-22T21:29:13.203Z,18.20
2022-08-22T21:31:59.411Z,18.20
2022-08-22T21:34:42.648Z,18.10
2022-08-22T21:37:16.995Z,18.10
2022-08-22T21:39:59.807Z,18.10
2022-08-22T21:42:39.153Z,18.00
2022-08-22T21:45:33.931Z,18.00
2022-08-22T21:48:01.559Z,17.90
2022-08-22T21:50:41.332Z,17.90
2022-08-22T21:53:16.638Z,17.90
2022-08-22T21:55:44.510Z,17.80
2022-08-22T21:58:32.593Z,17.80
2022-08-22T22:01:03.978Z,17.70
2022-08-22T22:03:36.529Z,17.70
2022-08-22T22:06:05.610Z,17.60
2022-08-22T22:08:33.154Z,17.60
2022-08-22T22:11:02.784Z,17.60
2022-08-22T22:13:33.429Z,17.60
2022-08-22T22:16:00.834Z,17.60
2022-08-22T22:18:30.982Z,17.60
2022-08-22T22:20:58.467Z,17.60
2022-08-22T22:23:26.324Z,17.60
2022-08-22T22:25:54.675Z,17.50
2022-08-22T22:28:24.926Z,17.60
2022-08-22T22:30:53.359Z,17.60
2022-08-22T22:33:22.313Z,17.50
2022-08-22T22:35:49.949Z,17.50
2022-08-22T22:38:20.635Z,17.50
2022-08-22T22:40:51.618Z,17.50
2022-08-22T22:43:19.539Z,17.40
2022-08-22T22:45:46.893Z,17.40
2022-08-22T22:48:17.527Z,17.30
2022-08-22T22:50:51.815Z,17.40
2022-08-22T22:53:21.247Z,17.30
2022-08-22T22:56:00.214Z,17.30
2022-08-22T22:58:28.918Z,17.30
2022-08-22T23:00:57.687Z,17.30
2022-08-22T23:03:26.804Z,17.30
2022-08-22T23:05:54.181Z,17.30
2022-08-22T23:08:21.587Z,17.30
2022-08-22T23:10:48.921Z,17.30
2022-08-22T23:13:16.292Z,17.30
2022-08-22T23:15:43.642Z,17.30
2022-08-22T23:18:10.968Z,17.30
2022-08-22T23:20:38.328Z,17.30
2022-08-22T23:23:05.918Z,17.30
2022-08-22T23:25:33.312Z,17.30
2022-08-22T23:28:00.827Z,17.30
2022-08-22T23:30:28.396Z,17.30
2022-08-22T23:32:56.131Z,17.30
2022-08-22T23:35:23.548Z,17.30
2022-08-22T23:37:50.940Z,17.30
2022-08-22T23:40:18.410Z,17.30
2022-08-22T23:42:45.941Z,17.30
2022-08-22T23:45:13.296Z,17.30
2022-08-22T23:47:40.779Z,17.30
2022-08-22T23:50:08.486Z,17.30
2022-08-22T23:52:35.843Z,17.30
2022-08-22T23:55:03.279Z,17.20
2022-08-22T23:57:30.645Z,17.20
2022-08-22T23:59:58.741Z,17.10
